createdAt,value
2023-05-05T00:01:45.571Z,61.99
2023-05-05T00:05:49.213Z,62.25
2023-05-05T00:09:51.104Z,62.45
2023-05-05T00:13:53.006Z,62.54
2023-05-05T00:17:55.168Z,62.62
2023-05-05T00:21:57.077Z,62.69
2023-05-05T00:25:59.043Z,62.60
2023-05-05T00:30:01.268Z,62.87
2023-05-05T00:34:03.261Z,63.20
2023-05-05T00:38:05.800Z,63.31
2023-05-05T00:42:07.788Z,63.47
2023-05-05T00:46:17.760Z,63.33
2023-05-05T00:50:25.907Z,63.57
2023-05-05T00:54:28.041Z,63.63
2023-05-05T00:58:30.255Z,63.82
2023-05-05T01:02:32.281Z,63.82
2023-05-05T01:07:18.537Z,63.99
2023-05-05T01:11:26.683Z,64.06
2023-05-05T01:15:37.255Z,63.91
2023-05-05T01:20:04.360Z,63.79
2023-05-05T01:24:31.280Z,63.77
2023-05-05T01:28:57.531Z,63.67
2023-05-05T01:33:07.186Z,63.70
2023-05-05T01:37:19.167Z,63.91
2023-05-05T01:41:26.440Z,64.35
2023-05-05T01:45:32.977Z,64.63
2023-05-05T01:49:36.823Z,64.64
2023-05-05T01:53:39.867Z,64.58
2023-05-05T01:57:43.913Z,64.42
2023-05-05T02:01:48.662Z,64.40
2023-05-05T02:05:52.748Z,64.34
2023-05-05T02:09:56.218Z,64.50
2023-05-05T02:13:59.487Z,64.74
2023-05-05T02:18:02.073Z,64.86
2023-05-05T02:22:04.183Z,65.08
2023-05-05T02:26:08.858Z,65.26
2023-05-05T02:30:13.831Z,65.55
2023-05-05T02:34:25.096Z,65.73
2023-05-05T02:38:29.078Z,65.91
2023-05-05T02:42:41.231Z,66.06
2023-05-05T02:46:44.977Z,66.25
2023-05-05T02:50:47.130Z,66.21
2023-05-05T02:54:59.432Z,66.30
2023-05-05T02:59:02.966Z,66.25
2023-05-05T03:03:38.509Z,66.34
2023-05-05T03:07:55.620Z,66.30
2023-05-05T03:12:01.699Z,66.49
2023-05-05T03:16:06.998Z,66.50
2023-05-05T03:20:11.886Z,66.69
2023-05-05T03:24:17.760Z,67.05
2023-05-05T03:28:24.039Z,67.25
2023-05-05T03:32:26.682Z,67.39
2023-05-05T03:36:31.704Z,67.43
2023-05-05T03:40:43.737Z,67.52
2023-05-05T03:44:47.602Z,67.51
2023-05-05T03:48:51.104Z,67.49
2023-05-05T03:52:53.266Z,67.44
2023-05-05T03:56:55.937Z,67.42
2023-05-05T04:00:57.925Z,67.40
2023-05-05T04:05:00.190Z,67.44
2023-05-05T04:09:02.928Z,67.56
2023-05-05T04:13:05.051Z,67.63
2023-05-05T04:17:07.319Z,67.81
2023-05-05T04:21:10.346Z,67.76
2023-05-05T04:25:13.018Z,67.77
2023-05-05T04:29:15.309Z,67.76
2023-05-05T04:33:17.458Z,67.98
2023-05-05T04:37:21.139Z,68.01
2023-05-05T04:41:23.170Z,68.11
2023-05-05T04:45:25.676Z,68.23
2023-05-05T04:49:32.067Z,68.25
2023-05-05T04:53:34.318Z,68.34
2023-05-05T04:57:37.173Z,68.59
2023-05-05T05:01:39.635Z,68.46
2023-05-05T05:05:41.850Z,68.33
2023-05-05T05:09:43.970Z,68.42
2023-05-05T05:13:46.517Z,68.47
2023-05-05T05:17:48.623Z,68.46
2023-05-05T05:21:50.790Z,68.20
2023-05-05T05:25:52.987Z,68.14
2023-05-05T05:29:55.379Z,68.10
2023-05-05T05:33:57.391Z,67.96
2023-05-05T05:38:00.201Z,67.83
2023-05-05T05:42:03.121Z,67.84
2023-05-05T05:46:06.944Z,67.75
2023-05-05T05:50:11.584Z,67.27
2023-05-05T05:54:14.084Z,66.61
2023-05-05T05:58:17.946Z,66.10
2023-05-05T06:02:20.927Z,65.39
2023-05-05T06:06:23.091Z,64.63
2023-05-05T06:10:28.344Z,64.20
2023-05-05T06:14:36.363Z,63.62
2023-05-05T06:18:38.607Z,63.30
2023-05-05T06:22:40.707Z,62.89
2023-05-05T06:26:43.271Z,62.33
2023-05-05T06:30:45.283Z,62.00
2023-05-05T06:34:47.834Z,61.50
2023-05-05T06:38:50.385Z,60.83
2023-05-05T06:42:52.424Z,60.23
2023-05-05T06:46:58.102Z,59.32
2023-05-05T06:51:00.373Z,59.05
2023-05-05T06:55:03.360Z,58.70
2023-05-05T06:59:05.554Z,58.04
2023-05-05T07:03:07.802Z,57.45
2023-05-05T07:07:09.906Z,57.01
2023-05-05T07:11:12.244Z,56.56
2023-05-05T07:15:26.792Z,56.03
2023-05-05T07:19:30.914Z,55.50
2023-05-05T07:23:33.768Z,54.98
2023-05-05T07:27:36.938Z,54.40
2023-05-05T07:31:38.957Z,53.99
2023-05-05T07:35:41.029Z,52.97
2023-05-05T07:39:43.229Z,51.92
2023-05-05T07:43:45.619Z,51.20
2023-05-05T07:47:47.851Z,49.51
2023-05-05T07:51:50.022Z,49.21
2023-05-05T07:55:52.125Z,48.34
2023-05-05T07:59:54.187Z,47.20
2023-05-05T08:03:56.386Z,45.88
2023-05-05T08:07:58.651Z,44.57
2023-05-05T08:12:02.195Z,42.23
2023-05-05T08:16:04.587Z,42.80
2023-05-05T08:20:07.584Z,42.94
2023-05-05T08:24:09.661Z,42.65
2023-05-05T08:28:11.781Z,40.70
2023-05-05T08:32:15.736Z,40.34
2023-05-05T08:36:17.805Z,39.92
2023-05-05T08:40:28.387Z,38.69
2023-05-05T08:44:33.274Z,38.02
2023-05-05T08:48:37.014Z,38.21
2023-05-05T08:52:41.773Z,37.73
2023-05-05T08:56:46.789Z,38.08
2023-05-05T09:00:49.851Z,38.15
2023-05-05T09:04:52.081Z,37.60
2023-05-05T09:08:55.318Z,37.23
2023-05-05T09:12:58.925Z,36.95
2023-05-05T09:17:03.338Z,36.53
2023-05-05T09:21:26.029Z,36.48
2023-05-05T09:25:28.368Z,36.37
2023-05-05T09:29:30.717Z,36.60
2023-05-05T09:33:32.984Z,37.09
2023-05-05T09:37:35.180Z,37.06
2023-05-05T09:41:43.061Z,37.49
2023-05-05T09:45:45.662Z,37.43
2023-05-05T09:49:58.378Z,37.80
2023-05-05T09:54:00.340Z,38.29
2023-05-05T09:58:23.441Z,38.10
2023-05-05T10:02:37.450Z,37.26
2023-05-05T10:06:47.137Z,37.23
2023-05-05T10:10:54.496Z,37.19
2023-05-05T10:14:57.147Z,37.55
2023-05-05T10:19:02.506Z,37.32
2023-05-05T10:23:07.780Z,37.52
2023-05-05T10:27:17.270Z,37.83
2023-05-05T10:31:37.335Z,38.28
2023-05-05T10:35:43.558Z,38.45
2023-05-05T10:39:46.896Z,38.73
2023-05-05T10:43:49.677Z,38.74
2023-05-05T10:47:53.503Z,39.25
2023-05-05T10:52:08.523Z,38.66
2023-05-05T10:56:10.386Z,38.32
2023-05-05T11:00:40.583Z,37.42
2023-05-05T11:04:42.692Z,37.60
2023-05-05T11:08:44.754Z,36.74
2023-05-05T11:12:59.620Z,36.13
2023-05-05T11:17:01.705Z,35.98
2023-05-05T11:21:16.504Z,36.05
2023-05-05T11:25:40.093Z,36.41
2023-05-05T11:30:07.758Z,37.24
2023-05-05T11:34:27.381Z,37.56
2023-05-05T11:38:38.641Z,37.57
2023-05-05T11:42:40.782Z,37.99
2023-05-05T11:46:52.091Z,38.16
2023-05-05T11:50:54.174Z,38.33
2023-05-05T11:55:00.581Z,38.50
2023-05-05T11:59:09.207Z,38.59
2023-05-05T12:03:12.094Z,38.18
2023-05-05T12:07:18.903Z,37.71
2023-05-05T12:11:21.045Z,37.79
2023-05-05T12:15:30.686Z,37.34
2023-05-05T12:19:33.243Z,37.01
2023-05-05T12:23:38.801Z,37.43
2023-05-05T12:27:41.211Z,37.01
2023-05-05T12:31:43.243Z,37.03
2023-05-05T12:35:45.344Z,36.63
2023-05-05T12:39:48.041Z,36.37
2023-05-05T12:44:00.829Z,36.15
2023-05-05T12:48:21.758Z,36.47
2023-05-05T12:52:23.833Z,36.92
2023-05-05T12:56:35.151Z,37.31
2023-05-05T13:00:37.134Z,38.12
2023-05-05T13:04:53.184Z,38.97
2023-05-05T13:08:56.803Z,39.34
2023-05-05T13:12:58.962Z,40.03
2023-05-05T13:17:00.949Z,40.60
2023-05-05T13:21:02.987Z,41.05
2023-05-05T13:25:05.522Z,41.52
2023-05-05T13:29:07.646Z,41.70
2023-05-05T13:33:09.837Z,42.13
2023-05-05T13:37:11.828Z,42.60
2023-05-05T13:41:13.820Z,43.01
2023-05-05T13:45:16.888Z,43.26
2023-05-05T13:49:19.779Z,43.08
2023-05-05T13:53:21.753Z,43.23
2023-05-05T13:57:23.789Z,43.62
2023-05-05T14:01:26.443Z,44.08
2023-05-05T14:05:30.756Z,43.96
2023-05-05T14:09:32.674Z,43.58
2023-05-05T14:13:34.702Z,43.18
2023-05-05T14:17:36.760Z,43.05
2023-05-05T14:21:38.718Z,43.48
2023-05-05T14:25:40.771Z,43.82
2023-05-05T14:29:42.871Z,44.24
2023-05-05T14:33:44.890Z,44.21
2023-05-05T14:37:46.946Z,43.86
2023-05-05T14:41:48.896Z,43.50
2023-05-05T14:45:51.981Z,43.56
2023-05-05T14:49:53.923Z,44.13
2023-05-05T14:53:56.038Z,44.48
2023-05-05T14:57:58.037Z,44.52
2023-05-05T15:02:00.169Z,44.29
2023-05-05T15:06:02.385Z,44.27
2023-05-05T15:10:04.904Z,43.85
2023-05-05T15:14:07.326Z,43.89
2023-05-05T15:18:09.329Z,44.26
2023-05-05T15:22:11.381Z,44.35
2023-05-05T15:26:13.417Z,44.38
2023-05-05T15:30:15.609Z,44.36
2023-05-05T15:34:17.657Z,44.63
2023-05-05T15:38:19.594Z,44.47
2023-05-05T15:42:21.601Z,44.28
2023-05-05T15:46:23.629Z,44.57
2023-05-05T15:50:25.779Z,44.80
2023-05-05T15:54:27.700Z,44.90
2023-05-05T15:58:29.630Z,45.18
2023-05-05T16:02:31.686Z,45.67
2023-05-05T16:06:33.887Z,45.92
2023-05-05T16:10:39.018Z,45.96
2023-05-05T16:14:41.034Z,46.06
2023-05-05T16:18:43.023Z,45.99
2023-05-05T16:22:45.614Z,46.35
2023-05-05T16:26:47.970Z,46.73
2023-05-05T16:30:50.065Z,46.84
2023-05-05T16:34:51.980Z,46.97
2023-05-05T16:38:55.267Z,46.98
2023-05-05T16:42:57.278Z,47.10
2023-05-05T16:46:59.285Z,47.17
2023-05-05T16:51:01.351Z,47.41
2023-05-05T16:55:04.315Z,47.38
2023-05-05T16:59:06.281Z,47.54
2023-05-05T17:03:08.281Z,47.51
2023-05-05T17:07:10.450Z,47.54
2023-05-05T17:11:12.596Z,47.77
2023-05-05T17:15:14.711Z,47.84
2023-05-05T17:19:16.855Z,48.15
2023-05-05T17:23:20.765Z,48.44
2023-05-05T17:27:22.671Z,48.94
2023-05-05T17:31:24.767Z,49.16
2023-05-05T17:35:26.842Z,49.24
2023-05-05T17:39:30.442Z,49.46
2023-05-05T17:43:32.450Z,49.69
2023-05-05T17:47:34.487Z,49.67
2023-05-05T17:51:36.585Z,49.82
2023-05-05T17:55:38.563Z,49.97
2023-05-05T17:59:44.649Z,50.15
2023-05-05T18:03:48.201Z,50.33
2023-05-05T18:07:50.267Z,50.76
2023-05-05T18:11:53.540Z,50.92
2023-05-05T18:15:55.517Z,51.01
2023-05-05T18:19:57.530Z,51.12
2023-05-05T18:24:07.680Z,51.29
2023-05-05T18:28:20.463Z,51.52
2023-05-05T18:32:23.244Z,51.79
2023-05-05T18:36:27.153Z,52.06
2023-05-05T18:40:29.138Z,52.19
2023-05-05T18:44:32.424Z,52.44
2023-05-05T18:48:34.356Z,52.62
2023-05-05T18:52:36.334Z,52.81
2023-05-05T18:56:38.526Z,52.99
2023-05-05T19:00:40.572Z,53.29
2023-05-05T19:04:42.586Z,53.43
2023-05-05T19:08:45.391Z,53.61
2023-05-05T19:12:47.418Z,53.91
2023-05-05T19:16:49.569Z,54.22
2023-05-05T19:20:51.573Z,54.33
2023-05-05T19:24:53.555Z,54.53
2023-05-05T19:28:55.816Z,54.79
2023-05-05T19:32:57.952Z,54.90
2023-05-05T19:36:59.993Z,55.02
2023-05-05T19:41:01.913Z,55.13
2023-05-05T19:45:04.453Z,55.27
2023-05-05T19:49:06.558Z,55.54
2023-05-05T19:53:08.524Z,55.64
2023-05-05T19:57:10.493Z,55.62
2023-05-05T20:01:12.486Z,55.90
2023-05-05T20:05:16.711Z,56.13
2023-05-05T20:09:18.791Z,56.19
2023-05-05T20:13:20.829Z,56.35
2023-05-05T20:17:23.379Z,56.55
2023-05-05T20:21:26.743Z,56.69
2023-05-05T20:25:28.791Z,56.95
2023-05-05T20:29:30.844Z,57.03
2023-05-05T20:33:32.786Z,57.07
2023-05-05T20:37:34.735Z,57.20
2023-05-05T20:41:40.088Z,57.55
2023-05-05T20:45:42.475Z,57.61
2023-05-05T20:49:44.517Z,57.82
2023-05-05T20:53:46.811Z,57.95
2023-05-05T20:57:48.706Z,58.09
2023-05-05T21:01:50.957Z,58.20
2023-05-05T21:05:53.715Z,58.21
2023-05-05T21:09:55.877Z,58.39
2023-05-05T21:13:57.861Z,58.56
2023-05-05T21:17:59.866Z,58.72
2023-05-05T21:22:01.865Z,58.89
2023-05-05T21:26:03.990Z,59.02
2023-05-05T21:30:08.520Z,59.20
2023-05-05T21:34:11.999Z,59.36
2023-05-05T21:38:14.015Z,59.64
2023-05-05T21:42:15.996Z,59.79
2023-05-05T21:46:17.981Z,59.90
2023-05-05T21:50:20.119Z,60.11
2023-05-05T21:54:22.084Z,60.22
2023-05-05T21:58:24.703Z,60.30
2023-05-05T22:02:26.637Z,60.45
2023-05-05T22:06:28.757Z,60.61
2023-05-05T22:10:30.691Z,60.85
2023-05-05T22:14:32.600Z,61.14
2023-05-05T22:18:35.523Z,61.28
2023-05-05T22:22:37.530Z,61.35
2023-05-05T22:26:42.548Z,61.50
2023-05-05T22:30:44.543Z,61.80
2023-05-05T22:34:46.484Z,62.00
2023-05-05T22:38:48.446Z,62.23
2023-05-05T22:42:50.464Z,62.39
2023-05-05T22:46:52.553Z,62.50
2023-05-05T22:50:54.580Z,62.52
2023-05-05T22:54:56.511Z,62.84
2023-05-05T22:58:58.643Z,63.20
2023-05-05T23:03:00.844Z,63.43
2023-05-05T23:07:02.822Z,63.61
2023-05-05T23:11:05.081Z,63.77
2023-05-05T23:15:07.932Z,64.06
2023-05-05T23:19:10.262Z,64.33
2023-05-05T23:23:12.331Z,64.50
2023-05-05T23:27:14.396Z,64.67
2023-05-05T23:31:16.348Z,64.82
2023-05-05T23:35:18.485Z,64.91
2023-05-05T23:39:20.353Z,65.15
2023-05-05T23:43:22.253Z,65.22
2023-05-05T23:47:24.186Z,65.25
2023-05-05T23:51:26.895Z,65.51
2023-05-05T23:55:28.927Z,65.55
2023-05-05T23:59:30.908Z,65.64
